CheckWX is a tool to help pilots better visualize weather data.  It is not intended as a substitute for an official pre-flight weather briefing.

14:22:37 UTC

KLUK METAR
Cincinnati Municipal Lunken Field Airport
Cincinnati, Ohio, USA
Current

30 mins ago

KLUK 221353Z 19004KT 10SM CLR 14/09 A3026 RMK AO2 SLP245 T01390089
Observed
Apr-22 @ 13:53 UTC
Wind
  • 190° at 4 KTS
Visibility
10 SM
Flight Rules
VFR
Cloud Levels
  • Clear skies
Temperature
14°C / 57°F
Dewpoint
C / 48°F
Humidity
72%
Altimeter
30.26" Hg
Pressure
1024.72 hPa
Previous

1 hour ago

KLUK 221253Z 23003KT 10SM CLR 09/09 A3026 RMK AO2 SLP247 T00940089
Observed
Apr-22 @ 12:53 UTC
Wind
  • 230° at 3 KTS
Visibility
10 SM
Flight Rules
VFR
Cloud Levels
  • Clear skies
Temperature
C / 48°F
Dewpoint
C / 48°F
Humidity
100%
Altimeter
30.26" Hg
Pressure
1024.72 hPa
Previous

2 hours ago

KLUK 221225Z 00000KT 10SM BCFG CLR 08/08 A3025 RMK AO2 T00830078
Observed
Apr-22 @ 12:25 UTC
Visibility
10 SM
Flight Rules
VFR
Conditions
Patches of Fog
Cloud Levels
  • Clear skies
Temperature
C / 46°F
Dewpoint
C / 46°F
Humidity
100%
Altimeter
30.25" Hg
Pressure
1024.42 hPa